Terminal Aerodrome Forecast
Issued by NWS

Home | Current Version | Previous Version | Text Only | Print | Product List | Glossary On
Versions: 1 2 3 4 5 6 7 8 9 10 11 12 13 14 15
000
FTUS44 KCRP 202324
TAFLRD
TAF
KLRD 202324Z 2100/2124 13012KT P6SM VCTS BKN060CB OVC250
      TEMPO 2101/2105 VRB25G40KT 1SM +TSRA BR OVC025CB
     FM210500 12011KT 6SM -TSRA BR SCT025CB BKN080
      TEMPO 2106/2110 P6SM NSW SCT080 OVC150
     FM211000 12010KT P6SM BKN015 OVC150
     FM211600 13011KT P6SM BKN035 OVC150
     FM212100 13014KT P6SM VCTS BKN050CB=

USA.gov is the U.S. government's official web portal to all federal, state and local government web resources and services.